Sunset Island, Florida
Current Conditions -  °F | °C
As of 7:53 AM on Friday 19 Dec 2014 (Local Time) from KMIA Reporting Station
Few Clouds Few Clouds  
Wind Chill: 65°   Ceiling: Unl
Heat Index: 65°   Visibility: 10mi
Dew Point: 52°   Wind: 5mph
Humidity: 63%   Direction: 360°N
Pressure: 30.1"   Gusts: NA
Location:  25.8181°N, 80.1301°W
Report Text: KMIA 191253Z 36004KT 10SM FEW030 FEW300 18/11 A3010 RMK AO2 SLP192 T01830111
Loading
Personal Weather Stations






























Interactive Weather Map New forecast layout! Learn more

10-Day Weather Forecast

Advertisements
Track Severe Weather on mobile